sensor_id;sensor_type;location;lat;lon;timestamp;P1;durP1;ratioP1;P2;durP2;ratioP2
39344;SDS011;25061;51.954;6.996;2022-10-16T00:01:09;8.57;;;3.10;;
39344;SDS011;25061;51.954;6.996;2022-10-16T00:03:36;9.73;;;3.22;;
39344;SDS011;25061;51.954;6.996;2022-10-16T00:06:02;12.70;;;3.25;;
39344;SDS011;25061;51.954;6.996;2022-10-16T00:08:29;9.73;;;3.38;;
39344;SDS011;25061;51.954;6.996;2022-10-16T00:10:59;11.40;;;3.63;;
39344;SDS011;25061;51.954;6.996;2022-10-16T00:13:25;9.52;;;3.47;;
39344;SDS011;25061;51.954;6.996;2022-10-16T00:15:54;11.18;;;3.72;;
39344;SDS011;25061;51.954;6.996;2022-10-16T00:18:20;9.60;;;3.60;;
39344;SDS011;25061;51.954;6.996;2022-10-16T00:20:46;9.95;;;4.05;;
39344;SDS011;25061;51.954;6.996;2022-10-16T00:23:12;10.82;;;3.45;;
39344;SDS011;25061;51.954;6.996;2022-10-16T00:25:38;10.45;;;3.70;;
39344;SDS011;25061;51.954;6.996;2022-10-16T00:28:04;8.95;;;3.20;;
39344;SDS011;25061;51.954;6.996;2022-10-16T00:30:30;9.35;;;3.33;;
39344;SDS011;25061;51.954;6.996;2022-10-16T00:32:56;8.93;;;3.70;;
39344;SDS011;25061;51.954;6.996;2022-10-16T00:35:22;12.77;;;4.00;;
39344;SDS011;25061;51.954;6.996;2022-10-16T00:37:48;8.50;;;3.60;;
39344;SDS011;25061;51.954;6.996;2022-10-16T00:40:14;9.50;;;3.20;;
39344;SDS011;25061;51.954;6.996;2022-10-16T00:42:40;8.93;;;3.97;;
39344;SDS011;25061;51.954;6.996;2022-10-16T00:45:08;10.63;;;3.63;;
39344;SDS011;25061;51.954;6.996;2022-10-16T00:47:38;7.97;;;3.33;;
39344;SDS011;25061;51.954;6.996;2022-10-16T00:50:07;11.52;;;3.42;;
39344;SDS011;25061;51.954;6.996;2022-10-16T00:52:33;10.32;;;4.00;;
39344;SDS011;25061;51.954;6.996;2022-10-16T00:54:59;12.98;;;3.50;;
39344;SDS011;25061;51.954;6.996;2022-10-16T00:57:25;10.35;;;3.55;;
39344;SDS011;25061;51.954;6.996;2022-10-16T00:59:51;8.50;;;3.78;;
39344;SDS011;25061;51.954;6.996;2022-10-16T01:02:18;9.77;;;3.65;;
39344;SDS011;25061;51.954;6.996;2022-10-16T01:04:48;9.00;;;3.30;;
39344;SDS011;25061;51.954;6.996;2022-10-16T01:07:25;10.88;;;3.83;;
39344;SDS011;25061;51.954;6.996;2022-10-16T01:15:13;11.45;;;4.07;;
39344;SDS011;25061;51.954;6.996;2022-10-16T01:17:56;9.25;;;3.80;;
39344;SDS011;25061;51.954;6.996;2022-10-16T01:20:30;9.35;;;3.90;;
39344;SDS011;25061;51.954;6.996;2022-10-16T01:25:30;8.70;;;2.97;;
39344;SDS011;25061;51.954;6.996;2022-10-16T01:28:02;9.52;;;4.10;;
39344;SDS011;25061;51.954;6.996;2022-10-16T01:30:31;9.50;;;4.00;;
39344;SDS011;25061;51.954;6.996;2022-10-16T01:33:00;8.48;;;3.65;;
39344;SDS011;25061;51.954;6.996;2022-10-16T01:35:27;9.15;;;3.80;;
39344;SDS011;25061;51.954;6.996;2022-10-16T01:40:21;9.98;;;3.78;;
39344;SDS011;25061;51.954;6.996;2022-10-16T01:42:51;8.10;;;3.47;;
39344;SDS011;25061;51.954;6.996;2022-10-16T01:45:18;10.23;;;3.80;;
39344;SDS011;25061;51.954;6.996;2022-10-16T01:47:45;13.00;;;3.88;;
39344;SDS011;25061;51.954;6.996;2022-10-16T01:50:12;10.20;;;3.63;;
39344;SDS011;25061;51.954;6.996;2022-10-16T01:52:40;11.02;;;4.47;;
39344;SDS011;25061;51.954;6.996;2022-10-16T01:55:08;8.80;;;3.42;;
39344;SDS011;25061;51.954;6.996;2022-10-16T01:57:36;9.85;;;3.63;;
39344;SDS011;25061;51.954;6.996;2022-10-16T02:00:05;8.57;;;3.35;;
39344;SDS011;25061;51.954;6.996;2022-10-16T02:02:33;9.98;;;3.78;;
39344;SDS011;25061;51.954;6.996;2022-10-16T02:05:08;9.50;;;3.55;;
39344;SDS011;25061;51.954;6.996;2022-10-16T02:07:36;10.15;;;3.35;;
39344;SDS011;25061;51.954;6.996;2022-10-16T02:10:02;7.55;;;3.08;;
39344;SDS011;25061;51.954;6.996;2022-10-16T02:12:29;6.68;;;2.90;;
39344;SDS011;25061;51.954;6.996;2022-10-16T02:14:56;8.75;;;3.72;;
39344;SDS011;25061;51.954;6.996;2022-10-16T02:17:22;9.90;;;2.90;;
39344;SDS011;25061;51.954;6.996;2022-10-16T02:19:49;6.65;;;2.85;;
39344;SDS011;25061;51.954;6.996;2022-10-16T02:22:21;6.65;;;2.50;;
39344;SDS011;25061;51.954;6.996;2022-10-16T02:24:54;9.45;;;2.97;;
39344;SDS011;25061;51.954;6.996;2022-10-16T02:27:30;6.95;;;2.67;;
39344;SDS011;25061;51.954;6.996;2022-10-16T02:30:19;7.57;;;2.78;;
39344;SDS011;25061;51.954;6.996;2022-10-16T02:32:46;8.05;;;3.00;;
39344;SDS011;25061;51.954;6.996;2022-10-16T02:35:14;9.55;;;3.30;;
39344;SDS011;25061;51.954;6.996;2022-10-16T02:37:41;9.95;;;3.55;;
39344;SDS011;25061;51.954;6.996;2022-10-16T02:40:08;7.15;;;2.53;;
39344;SDS011;25061;51.954;6.996;2022-10-16T02:42:35;7.40;;;2.45;;
39344;SDS011;25061;51.954;6.996;2022-10-16T02:45:01;7.63;;;2.90;;
39344;SDS011;25061;51.954;6.996;2022-10-16T02:47:27;6.53;;;2.40;;
39344;SDS011;25061;51.954;6.996;2022-10-16T02:49:53;7.82;;;2.50;;
39344;SDS011;25061;51.954;6.996;2022-10-16T02:52:19;8.50;;;2.80;;
39344;SDS011;25061;51.954;6.996;2022-10-16T02:54:45;6.97;;;2.50;;
39344;SDS011;25061;51.954;6.996;2022-10-16T02:57:11;8.00;;;2.38;;
39344;SDS011;25061;51.954;6.996;2022-10-16T02:59:37;24.83;;;3.83;;
39344;SDS011;25061;51.954;6.996;2022-10-16T03:02:03;5.78;;;2.17;;
39344;SDS011;25061;51.954;6.996;2022-10-16T03:04:29;5.80;;;2.20;;
39344;SDS011;25061;51.954;6.996;2022-10-16T03:06:55;8.15;;;2.50;;
39344;SDS011;25061;51.954;6.996;2022-10-16T03:09:21;7.00;;;2.10;;
39344;SDS011;25061;51.954;6.996;2022-10-16T03:11:47;7.07;;;2.20;;
39344;SDS011;25061;51.954;6.996;2022-10-16T03:14:13;5.25;;;2.05;;
39344;SDS011;25061;51.954;6.996;2022-10-16T03:16:39;5.00;;;2.03;;
39344;SDS011;25061;51.954;6.996;2022-10-16T03:19:05;4.80;;;1.85;;
39344;SDS011;25061;51.954;6.996;2022-10-16T03:21:31;5.93;;;1.92;;
39344;SDS011;25061;51.954;6.996;2022-10-16T03:23:57;4.72;;;2.00;;
39344;SDS011;25061;51.954;6.996;2022-10-16T03:26:23;7.70;;;2.00;;
39344;SDS011;25061;51.954;6.996;2022-10-16T03:28:49;7.03;;;1.73;;
39344;SDS011;25061;51.954;6.996;2022-10-16T03:31:15;7.43;;;2.00;;
39344;SDS011;25061;51.954;6.996;2022-10-16T03:33:41;5.68;;;2.17;;
39344;SDS011;25061;51.954;6.996;2022-10-16T03:36:07;4.80;;;1.70;;
39344;SDS011;25061;51.954;6.996;2022-10-16T03:38:32;6.72;;;1.77;;
39344;SDS011;25061;51.954;6.996;2022-10-16T03:40:59;6.57;;;1.90;;
39344;SDS011;25061;51.954;6.996;2022-10-16T03:43:24;4.97;;;1.92;;
39344;SDS011;25061;51.954;6.996;2022-10-16T03:45:50;4.28;;;1.73;;
39344;SDS011;25061;51.954;6.996;2022-10-16T03:48:17;6.00;;;1.92;;
39344;SDS011;25061;51.954;6.996;2022-10-16T03:50:43;4.25;;;1.65;;
39344;SDS011;25061;51.954;6.996;2022-10-16T03:53:09;4.13;;;1.70;;
39344;SDS011;25061;51.954;6.996;2022-10-16T03:55:35;5.25;;;1.60;;
39344;SDS011;25061;51.954;6.996;2022-10-16T03:58:01;4.20;;;1.75;;
39344;SDS011;25061;51.954;6.996;2022-10-16T04:00:27;5.35;;;1.75;;
39344;SDS011;25061;51.954;6.996;2022-10-16T04:02:53;5.13;;;1.55;;
39344;SDS011;25061;51.954;6.996;2022-10-16T04:05:19;4.38;;;1.52;;
39344;SDS011;25061;51.954;6.996;2022-10-16T04:07:45;5.57;;;1.70;;
39344;SDS011;25061;51.954;6.996;2022-10-16T04:10:11;7.68;;;2.20;;
39344;SDS011;25061;51.954;6.996;2022-10-16T04:12:37;6.13;;;1.90;;
39344;SDS011;25061;51.954;6.996;2022-10-16T04:15:03;12.80;;;2.78;;
39344;SDS011;25061;51.954;6.996;2022-10-16T04:17:29;6.60;;;1.80;;
39344;SDS011;25061;51.954;6.996;2022-10-16T04:19:55;7.82;;;2.10;;
39344;SDS011;25061;51.954;6.996;2022-10-16T04:22:20;5.70;;;1.85;;
39344;SDS011;25061;51.954;6.996;2022-10-16T04:24:46;7.50;;;2.05;;
39344;SDS011;25061;51.954;6.996;2022-10-16T04:27:12;4.95;;;1.65;;
39344;SDS011;25061;51.954;6.996;2022-10-16T04:29:38;5.82;;;1.88;;
39344;SDS011;25061;51.954;6.996;2022-10-16T04:32:04;6.95;;;1.63;;
39344;SDS011;25061;51.954;6.996;2022-10-16T04:34:30;6.85;;;2.08;;
39344;SDS011;25061;51.954;6.996;2022-10-16T04:36:56;7.50;;;1.92;;
39344;SDS011;25061;51.954;6.996;2022-10-16T04:39:22;9.43;;;2.15;;
39344;SDS011;25061;51.954;6.996;2022-10-16T04:41:48;4.50;;;1.80;;
39344;SDS011;25061;51.954;6.996;2022-10-16T04:44:14;8.55;;;1.92;;
39344;SDS011;25061;51.954;6.996;2022-10-16T04:46:40;4.15;;;1.45;;
39344;SDS011;25061;51.954;6.996;2022-10-16T04:49:06;4.72;;;1.42;;
39344;SDS011;25061;51.954;6.996;2022-10-16T04:51:32;5.95;;;1.63;;
39344;SDS011;25061;51.954;6.996;2022-10-16T04:53:58;5.50;;;1.90;;
39344;SDS011;25061;51.954;6.996;2022-10-16T04:56:24;7.25;;;2.55;;
39344;SDS011;25061;51.954;6.996;2022-10-16T04:58:50;5.38;;;1.70;;
39344;SDS011;25061;51.954;6.996;2022-10-16T05:01:16;5.85;;;1.67;;
39344;SDS011;25061;51.954;6.996;2022-10-16T05:03:42;5.20;;;1.75;;
39344;SDS011;25061;51.954;6.996;2022-10-16T05:06:08;6.90;;;1.60;;
39344;SDS011;25061;51.954;6.996;2022-10-16T05:08:35;4.88;;;1.73;;
39344;SDS011;25061;51.954;6.996;2022-10-16T05:11:01;3.72;;;1.35;;
39344;SDS011;25061;51.954;6.996;2022-10-16T05:13:27;5.93;;;1.70;;
39344;SDS011;25061;51.954;6.996;2022-10-16T05:15:53;5.50;;;1.63;;
39344;SDS011;25061;51.954;6.996;2022-10-16T05:18:19;3.90;;;1.38;;
39344;SDS011;25061;51.954;6.996;2022-10-16T05:20:44;5.28;;;1.85;;
39344;SDS011;25061;51.954;6.996;2022-10-16T05:23:10;4.93;;;1.70;;
39344;SDS011;25061;51.954;6.996;2022-10-16T05:25:37;5.30;;;1.50;;
39344;SDS011;25061;51.954;6.996;2022-10-16T05:28:03;3.83;;;1.40;;
39344;SDS011;25061;51.954;6.996;2022-10-16T05:30:29;5.30;;;1.52;;
39344;SDS011;25061;51.954;6.996;2022-10-16T05:32:55;6.78;;;1.70;;
39344;SDS011;25061;51.954;6.996;2022-10-16T05:35:21;5.35;;;2.00;;
39344;SDS011;25061;51.954;6.996;2022-10-16T05:37:47;6.10;;;1.50;;
39344;SDS011;25061;51.954;6.996;2022-10-16T05:40:13;5.63;;;1.70;;
39344;SDS011;25061;51.954;6.996;2022-10-16T05:42:39;3.45;;;1.55;;
39344;SDS011;25061;51.954;6.996;2022-10-16T05:45:06;4.38;;;1.70;;
39344;SDS011;25061;51.954;6.996;2022-10-16T05:47:32;3.30;;;1.20;;
39344;SDS011;25061;51.954;6.996;2022-10-16T05:49:58;3.20;;;1.50;;
39344;SDS011;25061;51.954;6.996;2022-10-16T05:52:24;14.88;;;1.88;;
39344;SDS011;25061;51.954;6.996;2022-10-16T05:54:50;4.32;;;1.60;;
39344;SDS011;25061;51.954;6.996;2022-10-16T05:57:16;5.00;;;1.42;;
39344;SDS011;25061;51.954;6.996;2022-10-16T05:59:42;5.18;;;1.60;;
39344;SDS011;25061;51.954;6.996;2022-10-16T06:02:10;4.60;;;1.23;;
39344;SDS011;25061;51.954;6.996;2022-10-16T06:04:37;4.70;;;1.40;;
39344;SDS011;25061;51.954;6.996;2022-10-16T06:07:03;3.15;;;1.33;;
39344;SDS011;25061;51.954;6.996;2022-10-16T06:09:29;7.63;;;1.75;;
39344;SDS011;25061;51.954;6.996;2022-10-16T06:11:55;4.70;;;1.40;;
39344;SDS011;25061;51.954;6.996;2022-10-16T06:14:21;5.80;;;1.30;;
39344;SDS011;25061;51.954;6.996;2022-10-16T06:16:47;5.40;;;1.75;;
39344;SDS011;25061;51.954;6.996;2022-10-16T06:19:13;5.75;;;1.85;;
39344;SDS011;25061;51.954;6.996;2022-10-16T06:21:40;4.63;;;1.73;;
39344;SDS011;25061;51.954;6.996;2022-10-16T06:24:06;3.10;;;1.20;;
39344;SDS011;25061;51.954;6.996;2022-10-16T06:26:32;4.80;;;1.42;;
39344;SDS011;25061;51.954;6.996;2022-10-16T06:28:58;4.20;;;1.45;;
39344;SDS011;25061;51.954;6.996;2022-10-16T06:31:25;7.00;;;1.55;;
39344;SDS011;25061;51.954;6.996;2022-10-16T06:33:53;4.85;;;1.40;;
39344;SDS011;25061;51.954;6.996;2022-10-16T06:36:19;4.35;;;1.50;;
39344;SDS011;25061;51.954;6.996;2022-10-16T06:38:45;5.72;;;1.48;;
39344;SDS011;25061;51.954;6.996;2022-10-16T06:41:13;4.60;;;1.58;;
39344;SDS011;25061;51.954;6.996;2022-10-16T06:43:39;2.88;;;1.30;;
39344;SDS011;25061;51.954;6.996;2022-10-16T06:46:06;4.53;;;1.42;;
39344;SDS011;25061;51.954;6.996;2022-10-16T06:48:35;3.85;;;1.63;;
39344;SDS011;25061;51.954;6.996;2022-10-16T06:51:05;4.07;;;1.83;;
39344;SDS011;25061;51.954;6.996;2022-10-16T06:53:32;4.75;;;1.42;;
39344;SDS011;25061;51.954;6.996;2022-10-16T06:56:06;6.00;;;1.50;;
39344;SDS011;25061;51.954;6.996;2022-10-16T06:58:32;4.88;;;1.60;;
39344;SDS011;25061;51.954;6.996;2022-10-16T07:00:58;4.32;;;1.30;;
39344;SDS011;25061;51.954;6.996;2022-10-16T07:03:24;6.88;;;1.80;;
39344;SDS011;25061;51.954;6.996;2022-10-16T07:05:50;3.90;;;1.33;;
39344;SDS011;25061;51.954;6.996;2022-10-16T07:08:16;5.13;;;1.70;;
39344;SDS011;25061;51.954;6.996;2022-10-16T07:10:42;6.18;;;1.50;;
39344;SDS011;25061;51.954;6.996;2022-10-16T07:13:08;4.15;;;1.50;;
39344;SDS011;25061;51.954;6.996;2022-10-16T07:15:38;3.63;;;1.38;;
39344;SDS011;25061;51.954;6.996;2022-10-16T07:18:04;4.28;;;1.63;;
39344;SDS011;25061;51.954;6.996;2022-10-16T07:20:30;7.53;;;2.20;;
39344;SDS011;25061;51.954;6.996;2022-10-16T07:22:55;7.43;;;2.00;;
39344;SDS011;25061;51.954;6.996;2022-10-16T07:25:21;6.82;;;1.67;;
39344;SDS011;25061;51.954;6.996;2022-10-16T07:27:47;4.85;;;1.50;;
39344;SDS011;25061;51.954;6.996;2022-10-16T07:30:13;6.68;;;2.30;;
39344;SDS011;25061;51.954;6.996;2022-10-16T07:32:39;4.05;;;1.55;;
39344;SDS011;25061;51.954;6.996;2022-10-16T07:35:05;6.07;;;1.70;;
39344;SDS011;25061;51.954;6.996;2022-10-16T07:37:32;6.32;;;2.38;;
39344;SDS011;25061;51.954;6.996;2022-10-16T07:39:58;5.38;;;1.95;;
39344;SDS011;25061;51.954;6.996;2022-10-16T07:42:23;5.85;;;1.33;;
39344;SDS011;25061;51.954;6.996;2022-10-16T07:44:49;5.82;;;1.98;;
39344;SDS011;25061;51.954;6.996;2022-10-16T07:47:15;4.80;;;2.17;;
39344;SDS011;25061;51.954;6.996;2022-10-16T07:49:41;4.97;;;2.00;;
39344;SDS011;25061;51.954;6.996;2022-10-16T07:52:07;5.97;;;1.50;;
39344;SDS011;25061;51.954;6.996;2022-10-16T07:54:33;4.22;;;1.52;;
39344;SDS011;25061;51.954;6.996;2022-10-16T07:56:59;5.80;;;1.92;;
39344;SDS011;25061;51.954;6.996;2022-10-16T07:59:25;3.85;;;1.45;;
39344;SDS011;25061;51.954;6.996;2022-10-16T08:01:51;5.65;;;2.17;;
39344;SDS011;25061;51.954;6.996;2022-10-16T08:04:17;5.15;;;1.80;;
39344;SDS011;25061;51.954;6.996;2022-10-16T08:06:43;5.75;;;2.35;;
39344;SDS011;25061;51.954;6.996;2022-10-16T08:09:09;10.43;;;1.98;;
39344;SDS011;25061;51.954;6.996;2022-10-16T08:11:35;5.45;;;1.67;;
39344;SDS011;25061;51.954;6.996;2022-10-16T08:14:01;4.85;;;1.55;;
39344;SDS011;25061;51.954;6.996;2022-10-16T08:16:27;5.68;;;1.92;;
39344;SDS011;25061;51.954;6.996;2022-10-16T08:18:53;7.22;;;1.67;;
39344;SDS011;25061;51.954;6.996;2022-10-16T08:21:19;6.03;;;2.08;;
39344;SDS011;25061;51.954;6.996;2022-10-16T08:23:46;5.55;;;1.70;;
39344;SDS011;25061;51.954;6.996;2022-10-16T08:26:12;5.32;;;1.98;;
39344;SDS011;25061;51.954;6.996;2022-10-16T08:28:38;6.03;;;2.05;;
39344;SDS011;25061;51.954;6.996;2022-10-16T08:31:11;4.07;;;1.50;;
39344;SDS011;25061;51.954;6.996;2022-10-16T08:33:38;6.10;;;1.70;;
39344;SDS011;25061;51.954;6.996;2022-10-16T08:36:04;4.78;;;1.60;;
39344;SDS011;25061;51.954;6.996;2022-10-16T08:38:31;8.07;;;1.58;;
39344;SDS011;25061;51.954;6.996;2022-10-16T08:41:01;4.85;;;2.10;;
39344;SDS011;25061;51.954;6.996;2022-10-16T08:50:52;4.05;;;1.23;;
39344;SDS011;25061;51.954;6.996;2022-10-16T08:53:27;4.60;;;1.55;;
39344;SDS011;25061;51.954;6.996;2022-10-16T08:55:54;6.22;;;1.50;;
39344;SDS011;25061;51.954;6.996;2022-10-16T08:58:26;5.05;;;1.40;;
39344;SDS011;25061;51.954;6.996;2022-10-16T09:00:56;3.25;;;1.42;;
39344;SDS011;25061;51.954;6.996;2022-10-16T09:03:30;5.53;;;1.15;;
39344;SDS011;25061;51.954;6.996;2022-10-16T09:16:49;8.73;;;1.70;;
39344;SDS011;25061;51.954;6.996;2022-10-16T09:19:20;6.03;;;1.70;;
39344;SDS011;25061;51.954;6.996;2022-10-16T09:21:47;6.05;;;2.05;;
39344;SDS011;25061;51.954;6.996;2022-10-16T09:24:17;8.93;;;2.78;;
39344;SDS011;25061;51.954;6.996;2022-10-16T09:26:44;8.23;;;3.05;;
39344;SDS011;25061;51.954;6.996;2022-10-16T09:29:17;11.10;;;3.30;;
39344;SDS011;25061;51.954;6.996;2022-10-16T09:31:45;11.02;;;3.47;;
39344;SDS011;25061;51.954;6.996;2022-10-16T09:34:32;11.13;;;3.50;;
39344;SDS011;25061;51.954;6.996;2022-10-16T09:36:58;8.95;;;3.03;;
39344;SDS011;25061;51.954;6.996;2022-10-16T09:39:25;9.13;;;2.80;;
39344;SDS011;25061;51.954;6.996;2022-10-16T09:41:51;7.68;;;2.33;;
39344;SDS011;25061;51.954;6.996;2022-10-16T09:46:49;6.78;;;2.50;;
39344;SDS011;25061;51.954;6.996;2022-10-16T09:51:44;8.82;;;2.40;;
39344;SDS011;25061;51.954;6.996;2022-10-16T09:56:37;6.60;;;1.90;;
39344;SDS011;25061;51.954;6.996;2022-10-16T09:59:24;9.80;;;1.90;;
39344;SDS011;25061;51.954;6.996;2022-10-16T10:01:53;7.07;;;1.80;;
39344;SDS011;25061;51.954;6.996;2022-10-16T10:04:20;10.65;;;2.33;;
39344;SDS011;25061;51.954;6.996;2022-10-16T10:06:51;11.20;;;2.40;;
39344;SDS011;25061;51.954;6.996;2022-10-16T10:09:31;7.13;;;2.10;;
39344;SDS011;25061;51.954;6.996;2022-10-16T10:12:01;7.03;;;2.15;;
39344;SDS011;25061;51.954;6.996;2022-10-16T10:17:44;3.28;;;1.17;;
39344;SDS011;25061;51.954;6.996;2022-10-16T10:19:48;6.20;;;1.80;;
39344;SDS011;25061;51.954;6.996;2022-10-16T10:22:28;6.30;;;1.30;;
39344;SDS011;25061;51.954;6.996;2022-10-16T10:30:20;4.95;;;1.33;;
39344;SDS011;25061;51.954;6.996;2022-10-16T10:35:49;7.03;;;1.15;;
39344;SDS011;25061;51.954;6.996;2022-10-16T10:40:54;5.30;;;1.40;;
39344;SDS011;25061;51.954;6.996;2022-10-16T10:45:57;5.20;;;1.38;;
39344;SDS011;25061;51.954;6.996;2022-10-16T10:48:31;5.47;;;1.30;;
39344;SDS011;25061;51.954;6.996;2022-10-16T10:51:04;7.20;;;1.55;;
39344;SDS011;25061;51.954;6.996;2022-10-16T10:53:35;6.90;;;1.60;;
39344;SDS011;25061;51.954;6.996;2022-10-16T11:01:26;7.43;;;1.48;;
39344;SDS011;25061;51.954;6.996;2022-10-16T11:06:26;6.40;;;1.45;;
39344;SDS011;25061;51.954;6.996;2022-10-16T11:08:56;5.40;;;1.30;;
39344;SDS011;25061;51.954;6.996;2022-10-16T11:11:35;6.38;;;1.60;;
39344;SDS011;25061;51.954;6.996;2022-10-16T11:14:22;6.50;;;1.23;;
39344;SDS011;25061;51.954;6.996;2022-10-16T11:16:51;8.20;;;1.67;;
39344;SDS011;25061;51.954;6.996;2022-10-16T11:21:50;4.65;;;1.17;;
39344;SDS011;25061;51.954;6.996;2022-10-16T11:24:23;5.10;;;1.30;;
39344;SDS011;25061;51.954;6.996;2022-10-16T11:26:52;5.85;;;1.17;;
39344;SDS011;25061;51.954;6.996;2022-10-16T11:29:21;8.52;;;1.40;;
39344;SDS011;25061;51.954;6.996;2022-10-16T11:31:50;7.55;;;1.17;;
39344;SDS011;25061;51.954;6.996;2022-10-16T11:37:18;5.03;;;1.65;;
39344;SDS011;25061;51.954;6.996;2022-10-16T11:39:45;10.68;;;1.70;;
39344;SDS011;25061;51.954;6.996;2022-10-16T11:42:19;5.47;;;1.30;;
39344;SDS011;25061;51.954;6.996;2022-10-16T11:44:54;6.15;;;1.40;;
39344;SDS011;25061;51.954;6.996;2022-10-16T11:47:37;10.48;;;1.65;;
39344;SDS011;25061;51.954;6.996;2022-10-16T11:52:55;7.68;;;1.48;;
39344;SDS011;25061;51.954;6.996;2022-10-16T11:55:39;7.47;;;1.23;;
39344;SDS011;25061;51.954;6.996;2022-10-16T12:03:22;6.13;;;1.27;;
39344;SDS011;25061;51.954;6.996;2022-10-16T12:05:52;4.50;;;1.13;;
39344;SDS011;25061;51.954;6.996;2022-10-16T12:08:20;5.68;;;1.50;;
39344;SDS011;25061;51.954;6.996;2022-10-16T12:10:47;8.20;;;1.88;;
39344;SDS011;25061;51.954;6.996;2022-10-16T12:18:40;6.72;;;1.48;;
39344;SDS011;25061;51.954;6.996;2022-10-16T12:21:06;6.78;;;1.52;;
39344;SDS011;25061;51.954;6.996;2022-10-16T12:23:33;8.07;;;1.35;;
39344;SDS011;25061;51.954;6.996;2022-10-16T12:26:02;6.32;;;1.30;;
39344;SDS011;25061;51.954;6.996;2022-10-16T12:28:29;8.93;;;1.85;;
39344;SDS011;25061;51.954;6.996;2022-10-16T12:31:00;6.25;;;1.25;;
39344;SDS011;25061;51.954;6.996;2022-10-16T12:33:28;6.75;;;1.33;;
39344;SDS011;25061;51.954;6.996;2022-10-16T12:35:54;8.55;;;1.55;;
39344;SDS011;25061;51.954;6.996;2022-10-16T12:38:25;6.28;;;1.42;;
39344;SDS011;25061;51.954;6.996;2022-10-16T12:41:02;10.73;;;2.10;;
39344;SDS011;25061;51.954;6.996;2022-10-16T12:46:02;9.00;;;1.48;;
39344;SDS011;25061;51.954;6.996;2022-10-16T12:48:29;7.27;;;1.90;;
39344;SDS011;25061;51.954;6.996;2022-10-16T12:50:55;5.55;;;1.10;;
39344;SDS011;25061;51.954;6.996;2022-10-16T12:53:22;7.43;;;1.60;;
39344;SDS011;25061;51.954;6.996;2022-10-16T12:55:53;7.97;;;1.40;;
39344;SDS011;25061;51.954;6.996;2022-10-16T12:58:34;7.32;;;1.15;;
39344;SDS011;25061;51.954;6.996;2022-10-16T13:03:52;8.05;;;1.23;;
39344;SDS011;25061;51.954;6.996;2022-10-16T13:11:39;7.85;;;1.30;;
39344;SDS011;25061;51.954;6.996;2022-10-16T13:14:25;9.07;;;1.88;;
39344;SDS011;25061;51.954;6.996;2022-10-16T13:17:01;8.32;;;1.75;;
39344;SDS011;25061;51.954;6.996;2022-10-16T13:19:34;5.13;;;1.08;;
39344;SDS011;25061;51.954;6.996;2022-10-16T13:29:53;10.05;;;1.65;;
39344;SDS011;25061;51.954;6.996;2022-10-16T13:32:20;8.52;;;1.90;;
39344;SDS011;25061;51.954;6.996;2022-10-16T13:34:47;12.68;;;1.63;;
39344;SDS011;25061;51.954;6.996;2022-10-16T13:37:17;10.38;;;2.53;;
39344;SDS011;25061;51.954;6.996;2022-10-16T13:39:44;9.70;;;2.40;;
39344;SDS011;25061;51.954;6.996;2022-10-16T13:42:12;6.10;;;1.42;;
39344;SDS011;25061;51.954;6.996;2022-10-16T13:44:43;6.93;;;1.42;;
39344;SDS011;25061;51.954;6.996;2022-10-16T13:47:14;7.72;;;1.50;;
39344;SDS011;25061;51.954;6.996;2022-10-16T13:49:40;11.00;;;2.85;;
39344;SDS011;25061;51.954;6.996;2022-10-16T13:52:15;8.60;;;2.08;;
39344;SDS011;25061;51.954;6.996;2022-10-16T13:54:42;6.20;;;1.75;;
39344;SDS011;25061;51.954;6.996;2022-10-16T13:57:11;8.95;;;2.10;;
39344;SDS011;25061;51.954;6.996;2022-10-16T13:59:37;7.88;;;1.70;;
39344;SDS011;25061;51.954;6.996;2022-10-16T14:02:14;7.18;;;1.40;;
39344;SDS011;25061;51.954;6.996;2022-10-16T14:04:41;8.48;;;1.30;;
39344;SDS011;25061;51.954;6.996;2022-10-16T14:07:12;14.00;;;1.67;;
39344;SDS011;25061;51.954;6.996;2022-10-16T14:09:38;6.07;;;1.08;;
39344;SDS011;25061;51.954;6.996;2022-10-16T14:12:08;11.45;;;2.20;;
39344;SDS011;25061;51.954;6.996;2022-10-16T14:14:35;6.20;;;1.30;;
39344;SDS011;25061;51.954;6.996;2022-10-16T14:17:05;12.35;;;1.83;;
39344;SDS011;25061;51.954;6.996;2022-10-16T14:19:31;6.30;;;1.50;;
39344;SDS011;25061;51.954;6.996;2022-10-16T14:21:58;6.13;;;1.25;;
39344;SDS011;25061;51.954;6.996;2022-10-16T14:24:32;7.07;;;1.40;;
39344;SDS011;25061;51.954;6.996;2022-10-16T14:26:59;8.98;;;1.65;;
39344;SDS011;25061;51.954;6.996;2022-10-16T14:29:26;8.13;;;1.55;;
39344;SDS011;25061;51.954;6.996;2022-10-16T14:31:56;5.68;;;1.23;;
39344;SDS011;25061;51.954;6.996;2022-10-16T14:34:33;7.60;;;1.52;;
39344;SDS011;25061;51.954;6.996;2022-10-16T14:37:07;5.30;;;1.10;;
39344;SDS011;25061;51.954;6.996;2022-10-16T14:39:34;9.40;;;1.80;;
39344;SDS011;25061;51.954;6.996;2022-10-16T14:42:01;5.28;;;1.30;;
39344;SDS011;25061;51.954;6.996;2022-10-16T14:44:31;8.18;;;1.50;;
39344;SDS011;25061;51.954;6.996;2022-10-16T14:46:57;6.63;;;1.38;;
39344;SDS011;25061;51.954;6.996;2022-10-16T14:49:24;9.90;;;1.20;;
39344;SDS011;25061;51.954;6.996;2022-10-16T14:51:51;4.90;;;1.35;;
39344;SDS011;25061;51.954;6.996;2022-10-16T14:54:18;6.18;;;1.20;;
39344;SDS011;25061;51.954;6.996;2022-10-16T14:56:51;7.35;;;1.42;;
39344;SDS011;25061;51.954;6.996;2022-10-16T15:01:56;7.75;;;1.70;;
39344;SDS011;25061;51.954;6.996;2022-10-16T15:04:22;7.43;;;1.40;;
39344;SDS011;25061;51.954;6.996;2022-10-16T15:06:48;6.68;;;1.13;;
39344;SDS011;25061;51.954;6.996;2022-10-16T15:09:14;5.88;;;1.55;;
39344;SDS011;25061;51.954;6.996;2022-10-16T15:11:40;6.50;;;1.50;;
39344;SDS011;25061;51.954;6.996;2022-10-16T15:14:08;3.03;;;1.02;;
39344;SDS011;25061;51.954;6.996;2022-10-16T15:16:36;7.05;;;1.30;;
39344;SDS011;25061;51.954;6.996;2022-10-16T15:19:02;5.90;;;1.40;;
39344;SDS011;25061;51.954;6.996;2022-10-16T15:21:30;7.07;;;1.52;;
39344;SDS011;25061;51.954;6.996;2022-10-16T15:23:57;7.43;;;1.75;;
39344;SDS011;25061;51.954;6.996;2022-10-16T15:26:24;8.18;;;2.17;;
39344;SDS011;25061;51.954;6.996;2022-10-16T15:28:50;8.82;;;1.77;;
39344;SDS011;25061;51.954;6.996;2022-10-16T15:31:16;7.00;;;2.13;;
39344;SDS011;25061;51.954;6.996;2022-10-16T15:33:42;8.90;;;1.95;;
39344;SDS011;25061;51.954;6.996;2022-10-16T15:36:08;6.00;;;1.45;;
39344;SDS011;25061;51.954;6.996;2022-10-16T15:38:34;6.55;;;1.77;;
39344;SDS011;25061;51.954;6.996;2022-10-16T15:41:00;8.68;;;1.95;;
39344;SDS011;25061;51.954;6.996;2022-10-16T15:43:26;13.02;;;2.70;;
39344;SDS011;25061;51.954;6.996;2022-10-16T15:46:04;12.85;;;2.10;;
39344;SDS011;25061;51.954;6.996;2022-10-16T15:48:31;6.97;;;1.90;;
39344;SDS011;25061;51.954;6.996;2022-10-16T15:50:57;8.95;;;1.70;;
39344;SDS011;25061;51.954;6.996;2022-10-16T15:53:23;9.65;;;2.03;;
39344;SDS011;25061;51.954;6.996;2022-10-16T15:55:49;8.95;;;1.75;;
39344;SDS011;25061;51.954;6.996;2022-10-16T15:58:15;6.20;;;2.17;;
39344;SDS011;25061;51.954;6.996;2022-10-16T16:00:41;9.70;;;1.80;;
39344;SDS011;25061;51.954;6.996;2022-10-16T16:03:07;7.13;;;1.77;;
39344;SDS011;25061;51.954;6.996;2022-10-16T16:05:33;8.85;;;1.92;;
39344;SDS011;25061;51.954;6.996;2022-10-16T16:08:00;6.32;;;2.00;;
39344;SDS011;25061;51.954;6.996;2022-10-16T16:10:26;10.73;;;2.17;;
39344;SDS011;25061;51.954;6.996;2022-10-16T16:12:52;11.27;;;2.85;;
39344;SDS011;25061;51.954;6.996;2022-10-16T16:15:18;8.77;;;2.80;;
39344;SDS011;25061;51.954;6.996;2022-10-16T16:17:45;8.60;;;2.28;;
39344;SDS011;25061;51.954;6.996;2022-10-16T16:20:11;11.00;;;2.25;;
39344;SDS011;25061;51.954;6.996;2022-10-16T16:22:37;8.82;;;2.15;;
39344;SDS011;25061;51.954;6.996;2022-10-16T16:25:03;8.50;;;2.15;;
39344;SDS011;25061;51.954;6.996;2022-10-16T16:27:29;11.93;;;3.10;;
39344;SDS011;25061;51.954;6.996;2022-10-16T16:29:58;15.30;;;4.25;;